Time;durP1;ratioP1;P1;durP2;ratioP2;P2;SDS_P1;SDS_P2;PMS_P1;PMS_P2;Temp;Humidity;BMP_temperature;BMP_pressure;BME280_temperature;BME280_humidity;BME280_pressure;Samples;Min_cycle;Max_cycle;Signal;HPM_P1;HPM_P2
2023/05/20 00:02:25;;;;;;;2.20;2.10;;;18.00;33.50;;;;;;10447869;28;20225;-69
2023/05/20 00:07:29;;;;;;;2.07;1.97;;;18.00;33.30;;;;;;10450498;28;20315;-69
2023/05/20 00:12:34;;;;;;;2.47;2.13;;;18.00;33.50;;;;;;10450270;28;20802;-69
2023/05/20 00:17:37;;;;;;;2.70;2.50;;;17.90;33.90;;;;;;10450949;28;20244;-69
2023/05/20 00:22:40;;;;;;;2.70;2.50;;;17.90;33.80;;;;;;10451841;28;20558;-69
2023/05/20 00:27:46;;;;;;;2.60;2.40;;;17.90;33.80;;;;;;10453208;28;20751;-69
2023/05/20 00:32:49;;;;;;;2.70;2.50;;;17.90;34.30;;;;;;10453142;28;20315;-69
2023/05/20 00:37:52;;;;;;;2.80;2.60;;;17.80;33.80;;;;;;10453268;28;20350;-68
2023/05/20 00:42:57;;;;;;;2.60;2.40;;;17.80;34.00;;;;;;10452355;28;20323;-69
2023/05/20 00:48:02;;;;;;;3.47;2.50;;;17.70;34.50;;;;;;10452424;28;20252;-69
2023/05/20 00:53:07;;;;;;;2.43;2.30;;;17.70;34.10;;;;;;10453317;28;20233;-70
2023/05/20 00:58:12;;;;;;;2.80;2.60;;;17.60;34.10;;;;;;10452151;28;20248;-69
2023/05/20 01:03:16;;;;;;;2.30;2.20;;;17.60;34.40;;;;;;10451913;28;20756;-69
2023/05/20 01:08:20;;;;;;;2.10;1.90;;;17.60;34.40;;;;;;10451122;28;20236;-69
2023/05/20 01:13:31;;;;;;;2.20;2.10;;;17.50;34.30;;;;;;10450736;28;20303;-69
2023/05/20 01:18:35;;;;;;;2.50;2.30;;;17.50;34.40;;;;;;10450857;28;20282;-69
2023/05/20 01:23:41;;;;;;;3.60;2.73;;;17.50;34.30;;;;;;10449724;28;20249;-69
2023/05/20 01:28:44;;;;;;;3.03;2.73;;;17.40;34.30;;;;;;10446503;28;20727;-69
2023/05/20 01:33:53;;;;;;;2.60;2.40;;;17.40;34.20;;;;;;10447887;28;20225;-69
2023/05/20 01:38:59;;;;;;;2.70;2.53;;;17.40;34.70;;;;;;10449401;28;20249;-69
2023/05/20 01:44:03;;;;;;;2.43;2.27;;;17.30;34.30;;;;;;10448252;28;20655;-69
2023/05/20 01:49:07;;;;;;;3.10;2.80;;;17.30;34.10;;;;;;10449888;28;20240;-70
2023/05/20 01:54:12;;;;;;;2.90;2.70;;;17.30;34.10;;;;;;10448509;28;20233;-70
2023/05/20 01:59:18;;;;;;;2.63;2.43;;;17.20;34.80;;;;;;10449647;28;20287;-70
2023/05/20 02:04:21;;;;;;;3.00;2.70;;;17.20;34.80;;;;;;10448737;28;20240;-70
2023/05/20 02:09:26;;;;;;;2.80;2.60;;;17.10;34.40;;;;;;10449206;28;20237;-70
2023/05/20 02:14:29;;;;;;;2.80;2.60;;;17.10;34.80;;;;;;10447481;28;20240;-70
2023/05/20 02:19:33;;;;;;;3.30;3.00;;;17.10;34.50;;;;;;10448470;28;20271;-70
2023/05/20 02:24:38;;;;;;;3.30;2.80;;;17.00;34.70;;;;;;10447841;28;20259;-70
2023/05/20 02:29:42;;;;;;;3.47;3.17;;;17.00;35.10;;;;;;10447438;28;20229;-70
2023/05/20 02:34:46;;;;;;;3.10;2.80;;;16.90;34.60;;;;;;10456700;28;20228;-70
2023/05/20 02:39:50;;;;;;;3.00;2.80;;;16.80;34.60;;;;;;10449401;28;20232;-70
2023/05/20 02:44:57;;;;;;;3.73;3.30;;;16.70;35.10;;;;;;10442059;28;20319;-70
2023/05/20 02:50:00;;;;;;;2.90;2.70;;;16.70;35.00;;;;;;10443918;28;20716;-70
2023/05/20 02:55:06;;;;;;;2.80;2.60;;;16.60;35.60;;;;;;10442462;28;20412;-70
2023/05/20 03:00:10;;;;;;;3.30;3.00;;;16.60;35.40;;;;;;10442460;28;20376;-70
2023/05/20 03:05:14;;;;;;;2.53;2.37;;;16.60;35.30;;;;;;10448350;28;20248;-70
2023/05/20 03:10:18;;;;;;;2.97;2.77;;;16.50;35.20;;;;;;10442115;28;20905;-70
2023/05/20 03:15:21;;;;;;;3.40;3.10;;;16.50;35.50;;;;;;10445226;28;20285;-70
2023/05/20 03:20:27;;;;;;;3.30;3.10;;;16.50;35.20;;;;;;10439109;28;20227;-70
2023/05/20 03:25:32;;;;;;;3.97;3.47;;;16.50;35.30;;;;;;10445519;28;20253;-70
2023/05/20 03:30:36;;;;;;;3.30;3.00;;;16.50;35.90;;;;;;10438993;28;20794;-70
2023/05/20 03:35:40;;;;;;;3.83;3.53;;;16.40;35.50;;;;;;10448162;28;20290;-70
2023/05/20 03:40:44;;;;;;;3.77;3.47;;;16.40;35.60;;;;;;10449059;28;20235;-70
2023/05/20 03:45:48;;;;;;;3.40;3.20;;;16.40;36.10;;;;;;10454045;28;20228;-70
2023/05/20 03:50:51;;;;;;;3.93;3.00;;;16.40;35.90;;;;;;10451412;28;20277;-70
2023/05/20 03:55:56;;;;;;;3.57;3.10;;;16.40;36.60;;;;;;10452502;28;20233;-69
2023/05/20 04:01:00;;;;;;;3.80;3.50;;;16.30;36.30;;;;;;10453134;28;20275;-69
2023/05/20 04:06:03;;;;;;;4.00;3.70;;;16.30;36.10;;;;;;10452551;28;20571;-69
2023/05/20 04:11:08;;;;;;;3.60;3.30;;;16.30;36.30;;;;;;10472041;28;20225;-69
2023/05/20 04:16:11;;;;;;;3.83;3.57;;;16.40;36.80;;;;;;10493447;28;20231;-68
2023/05/20 04:21:14;;;;;;;3.40;3.20;;;16.40;36.60;;;;;;10493622;28;20228;-69
2023/05/20 04:26:19;;;;;;;3.73;3.53;;;16.40;36.60;;;;;;10493423;28;20762;-69
2023/05/20 04:31:25;;;;;;;4.03;3.73;;;16.40;37.20;;;;;;10493262;28;20311;-69
2023/05/20 04:36:30;;;;;;;3.40;3.20;;;16.40;36.90;;;;;;10490349;28;20232;-68
2023/05/20 04:41:36;;;;;;;4.03;3.73;;;16.40;37.00;;;;;;10460309;28;20307;-69
2023/05/20 04:46:40;;;;;;;4.23;3.90;;;16.40;37.50;;;;;;10448501;28;20243;-69
2023/05/20 04:51:43;;;;;;;3.97;3.67;;;16.40;37.30;;;;;;10447900;28;20328;-69
2023/05/20 04:56:48;;;;;;;4.00;3.70;;;16.40;37.30;;;;;;10448736;28;20225;-70
2023/05/20 05:01:52;;;;;;;3.80;3.50;;;16.50;37.80;;;;;;10445355;28;20314;-69
2023/05/20 05:06:56;;;;;;;3.90;3.60;;;16.50;37.50;;;;;;10445451;28;20220;-70
2023/05/20 05:12:01;;;;;;;3.97;3.73;;;16.50;37.50;;;;;;10444998;28;20225;-69
2023/05/20 05:17:05;;;;;;;4.17;3.73;;;16.60;38.20;;;;;;10445137;28;21179;-70
2023/05/20 05:22:08;;;;;;;4.40;3.67;;;16.60;37.80;;;;;;10441300;28;20647;-70
2023/05/20 05:27:13;;;;;;;4.27;3.97;;;16.70;37.80;;;;;;10449711;28;20855;-69
2023/05/20 05:32:18;;;;;;;4.57;4.17;;;16.80;38.30;;;;;;10448269;28;20297;-70
2023/05/20 05:37:21;;;;;;;4.60;4.20;;;16.90;37.90;;;;;;10448018;28;20236;-71
2023/05/20 05:42:26;;;;;;;4.57;4.23;;;17.00;38.00;;;;;;10452864;28;20225;-70
2023/05/20 05:47:31;;;;;;;4.83;4.43;;;17.10;38.00;;;;;;10443067;28;20268;-69
2023/05/20 05:52:35;;;;;;;4.60;4.13;;;17.20;37.80;;;;;;10440817;28;20927;-69
2023/05/20 05:57:40;;;;;;;4.63;4.07;;;17.30;37.90;;;;;;10446864;28;20288;-70
2023/05/20 06:02:44;;;;;;;4.10;3.80;;;17.40;38.10;;;;;;10443850;28;20686;-70
2023/05/20 06:07:47;;;;;;;4.43;4.07;;;17.50;38.00;;;;;;10444838;28;20232;-69
2023/05/20 06:12:52;;;;;;;4.77;4.37;;;17.60;37.80;;;;;;10445391;28;20316;-70
2023/05/20 06:17:55;;;;;;;4.37;4.07;;;17.80;38.00;;;;;;10437133;28;20232;-70
2023/05/20 06:22:59;;;;;;;4.40;4.00;;;17.90;38.00;;;;;;10442553;28;20274;-69
2023/05/20 06:28:04;;;;;;;4.50;4.20;;;18.00;37.90;;;;;;10442204;28;20259;-69
2023/05/20 06:33:07;;;;;;;4.70;4.20;;;18.20;38.00;;;;;;10446124;28;20656;-69
2023/05/20 06:38:10;;;;;;;4.20;3.90;;;18.30;37.90;;;;;;10445534;28;20279;-69
2023/05/20 06:43:15;;;;;;;4.60;4.23;;;18.40;37.80;;;;;;10443161;28;20231;-69
2023/05/20 06:48:18;;;;;;;4.47;4.17;;;18.60;38.20;;;;;;10447209;28;20253;-70
2023/05/20 06:53:21;;;;;;;4.50;4.10;;;18.70;37.90;;;;;;10441858;28;20241;-70
2023/05/20 06:58:26;;;;;;;4.93;4.53;;;18.90;37.80;;;;;;10441494;28;20240;-70
2023/05/20 07:03:29;;;;;;;4.90;4.40;;;19.00;37.90;;;;;;10442792;28;20319;-70
2023/05/20 07:08:33;;;;;;;4.90;4.50;;;19.20;37.70;;;;;;10446410;28;20243;-70
2023/05/20 07:13:37;;;;;;;5.23;4.83;;;19.30;37.50;;;;;;10452721;28;20727;-70
2023/05/20 07:18:41;;;;;;;4.77;4.47;;;19.50;37.50;;;;;;10445504;28;20228;-70
2023/05/20 07:23:44;;;;;;;5.33;4.53;;;19.60;37.20;;;;;;10441727;28;20231;-70
2023/05/20 07:28:50;;;;;;;4.83;4.43;;;19.70;37.20;;;;;;10448071;28;20224;-70
2023/05/20 07:33:53;;;;;;;4.60;4.30;;;19.90;37.30;;;;;;10438644;28;20250;-71
2023/05/20 07:38:56;;;;;;;4.80;4.40;;;20.10;37.10;;;;;;10454239;28;20240;-70
2023/05/20 07:44:10;;;;;;;5.40;5.00;;;20.20;36.80;;;;;;10446388;28;20227;-71
2023/05/20 07:49:13;;;;;;;4.73;4.33;;;20.40;36.90;;;;;;10451840;28;20228;-71
2023/05/20 07:54:16;;;;;;;4.83;4.43;;;20.60;37.00;;;;;;10451402;28;20233;-70
2023/05/20 07:59:21;;;;;;;4.83;4.43;;;20.80;37.20;;;;;;10447582;28;20255;-71
2023/05/20 08:04:25;;;;;;;4.40;4.00;;;21.00;37.00;;;;;;10451135;28;20239;-70
2023/05/20 08:09:31;;;;;;;4.60;4.30;;;21.20;36.80;;;;;;10448882;28;20336;-70
2023/05/20 08:14:36;;;;;;;4.80;4.50;;;21.40;36.60;;;;;;10449865;28;20231;-70
2023/05/20 08:19:39;;;;;;;5.27;3.90;;;21.60;35.90;;;;;;10445845;28;20636;-71
2023/05/20 08:24:42;;;;;;;4.40;4.10;;;21.80;36.20;;;;;;10449387;28;20232;-70
2023/05/20 08:29:47;;;;;;;4.20;3.80;;;21.90;36.10;;;;;;10444047;28;20221;-71
2023/05/20 08:34:50;;;;;;;4.40;4.10;;;22.10;35.90;;;;;;10448902;28;21054;-71
2023/05/20 08:39:54;;;;;;;4.53;4.23;;;22.30;36.10;;;;;;10450407;28;20229;-73
2023/05/20 08:44:59;;;;;;;4.80;4.40;;;22.50;35.60;;;;;;10459101;28;20232;-73
2023/05/20 08:50:03;;;;;;;4.57;4.20;;;22.70;34.90;;;;;;10450989;28;20247;-72
2023/05/20 08:55:10;;;;;;;4.77;4.30;;;22.90;35.30;;;;;;10444319;28;20236;-71
2023/05/20 09:00:17;;;;;;;4.60;4.30;;;23.10;34.60;;;;;;10446969;28;20225;-70
2023/05/20 09:05:21;;;;;;;4.50;4.20;;;23.30;34.80;;;;;;10447774;28;20274;-71
2023/05/20 09:10:26;;;;;;;4.10;3.80;;;23.40;34.30;;;;;;10450445;28;20315;-71
2023/05/20 09:15:31;;;;;;;4.33;4.03;;;23.60;34.00;;;;;;10440417;28;20339;-70
2023/05/20 09:20:35;;;;;;;4.30;4.00;;;23.60;32.90;;;;;;10445514;28;20224;-70
2023/05/20 09:25:39;;;;;;;3.83;3.57;;;23.60;33.70;;;;;;10444068;28;20239;-71
2023/05/20 09:30:44;;;;;;;4.10;3.80;;;23.70;34.00;;;;;;10441854;28;20328;-70
2023/05/20 09:35:50;;;;;;;4.60;4.30;;;23.90;33.60;;;;;;10423914;28;20615;-71
2023/05/20 09:40:54;;;;;;;4.80;4.40;;;24.00;33.00;;;;;;10406209;28;20320;-71
2023/05/20 09:45:59;;;;;;;4.20;3.90;;;24.10;33.20;;;;;;10407527;28;20230;-71
2023/05/20 09:51:04;;;;;;;4.67;4.27;;;24.30;32.10;;;;;;10407748;28;20305;-71
2023/05/20 09:56:07;;;;;;;4.20;3.90;;;24.40;32.50;;;;;;10407383;28;20830;-70
2023/05/20 10:01:12;;;;;;;4.43;4.10;;;24.50;32.60;;;;;;10407211;28;20238;-71
2023/05/20 10:06:33;;;;;;;4.00;3.70;;;24.60;31.80;;;;;;10404720;28;20234;-71
2023/05/20 10:11:41;;;;;;;6.33;3.80;;;24.70;31.10;;;;;;10405900;28;20248;-70
2023/05/20 10:16:51;;;;;;;3.50;3.30;;;24.80;31.60;;;;;;10409049;28;20353;-71
2023/05/20 10:21:58;;;;;;;3.83;3.53;;;24.90;31.40;;;;;;10436999;28;20231;-72
2023/05/20 10:27:03;;;;;;;3.83;3.53;;;25.10;30.70;;;;;;10435437;28;20335;-71
2023/05/20 10:32:08;;;;;;;3.80;3.60;;;25.20;30.90;;;;;;10430543;28;20684;-72
2023/05/20 10:37:23;;;;;;;3.27;3.00;;;25.20;30.10;;;;;;10437546;28;20670;-72
2023/05/20 10:42:30;;;;;;;4.10;3.80;;;25.20;30.00;;;;;;10439498;28;20224;-71
2023/05/20 10:47:35;;;;;;;4.30;3.77;;;25.20;29.60;;;;;;10436032;28;20233;-70
2023/05/20 10:52:39;;;;;;;4.13;3.73;;;25.30;29.90;;;;;;10437172;28;20638;-71
2023/05/20 10:57:43;;;;;;;4.30;4.00;;;25.40;30.60;;;;;;10440597;28;20240;-70
2023/05/20 11:02:49;;;;;;;6.87;6.37;;;25.60;30.00;;;;;;10441222;28;20964;-70
2023/05/20 11:08:01;;;;;;;5.47;3.90;;;25.70;29.80;;;;;;10441364;28;21033;-70
2023/05/20 11:13:13;;;;;;;5.97;5.47;;;25.70;29.00;;;;;;10446704;28;20665;-69
2023/05/20 11:18:18;;;;;;;4.23;3.93;;;25.70;29.00;;;;;;10447876;28;20240;-71
2023/05/20 11:23:23;;;;;;;3.80;3.50;;;25.80;29.10;;;;;;10446521;28;20279;-73
2023/05/20 11:28:26;;;;;;;3.40;3.20;;;25.80;29.40;;;;;;10438584;28;20236;-70
2023/05/20 11:33:31;;;;;;;4.03;3.73;;;25.80;29.10;;;;;;10439889;28;20323;-71
2023/05/20 11:38:35;;;;;;;4.43;4.07;;;25.80;29.10;;;;;;10439051;28;20327;-70
2023/05/20 11:43:40;;;;;;;6.20;4.80;;;25.80;29.10;;;;;;10438325;28;20236;-72
2023/05/20 11:48:53;;;;;;;4.60;4.30;;;25.90;29.10;;;;;;10445228;28;20319;-73
2023/05/20 11:54:01;;;;;;;4.00;3.70;;;26.00;29.20;;;;;;10445028;28;20329;-71
2023/05/20 11:59:06;;;;;;;4.53;4.13;;;26.10;29.00;;;;;;10448905;28;20229;-72
2023/05/20 12:04:11;;;;;;;5.23;4.73;;;26.10;28.50;;;;;;10450467;28;20311;-72
2023/05/20 12:09:15;;;;;;;4.43;4.10;;;26.10;28.30;;;;;;10449970;28;20228;-72
2023/05/20 12:14:19;;;;;;;4.13;3.83;;;26.10;28.50;;;;;;10450501;28;21024;-72
2023/05/20 12:19:24;;;;;;;6.20;4.17;;;26.20;28.10;;;;;;10450246;28;20283;-72
2023/05/20 12:24:28;;;;;;;4.17;3.87;;;26.20;27.50;;;;;;10449784;28;20233;-75
2023/05/20 12:29:31;;;;;;;4.80;4.40;;;26.10;27.90;;;;;;10449886;28;20732;-72
2023/05/20 12:34:35;;;;;;;7.03;4.83;;;26.00;28.10;;;;;;10449401;28;20249;-72
2023/05/20 12:39:38;;;;;;;5.70;5.20;;;26.00;27.80;;;;;;10449189;28;20331;-72
2023/05/20 12:44:42;;;;;;;5.20;4.90;;;26.00;28.40;;;;;;10449386;28;20233;-72
2023/05/20 12:49:47;;;;;;;5.30;4.90;;;26.00;28.40;;;;;;10450099;28;20245;-72
2023/05/20 12:54:51;;;;;;;6.03;4.87;;;26.00;27.50;;;;;;10449450;28;20324;-73
2023/05/20 12:59:55;;;;;;;5.47;4.97;;;26.10;28.20;;;;;;10450097;28;20737;-73
2023/05/20 13:05:00;;;;;;;7.20;6.60;;;26.10;28.10;;;;;;10415009;28;20283;-73
2023/05/20 13:10:03;;;;;;;5.40;5.03;;;26.20;27.80;;;;;;10409399;28;20297;-72
2023/05/20 13:15:08;;;;;;;5.47;5.00;;;26.40;27.80;;;;;;10408523;28;20308;-70
2023/05/20 13:20:13;;;;;;;5.50;5.10;;;26.50;27.20;;;;;;10449917;28;20279;-71
2023/05/20 13:25:16;;;;;;;5.37;4.97;;;26.60;27.10;;;;;;10449306;28;20228;-70
2023/05/20 13:30:19;;;;;;;5.60;5.20;;;26.70;27.30;;;;;;10448882;28;20324;-70
2023/05/20 13:35:24;;;;;;;5.80;5.40;;;26.80;26.90;;;;;;10447498;28;20229;-70
2023/05/20 13:40:27;;;;;;;5.80;5.30;;;27.00;26.60;;;;;;10447853;28;20229;-71
2023/05/20 13:45:30;;;;;;;8.20;5.30;;;27.00;26.50;;;;;;10447157;28;20239;-70
2023/05/20 13:50:35;;;;;;;6.63;5.63;;;27.10;26.50;;;;;;10446425;28;20264;-70
2023/05/20 13:55:38;;;;;;;5.93;5.33;;;27.20;26.10;;;;;;10447659;28;20225;-70
2023/05/20 14:00:42;;;;;;;6.03;5.47;;;27.20;26.00;;;;;;10447659;28;20340;-70
2023/05/20 14:05:46;;;;;;;5.60;5.20;;;27.30;26.10;;;;;;10448166;28;20290;-70
2023/05/20 14:10:53;;;;;;;8.30;5.63;;;27.30;25.40;;;;;;10432206;28;20229;-70
2023/05/20 14:15:56;;;;;;;5.60;5.20;;;27.30;25.70;;;;;;10429638;28;20582;-70
2023/05/20 14:21:01;;;;;;;6.17;5.37;;;27.40;25.40;;;;;;10445757;28;20233;-70
2023/05/20 14:26:04;;;;;;;5.80;5.30;;;27.40;24.80;;;;;;10434535;28;20209;-69
2023/05/20 14:31:09;;;;;;;5.70;5.20;;;27.50;25.20;;;;;;10451534;28;20323;-70
2023/05/20 14:36:14;;;;;;;5.77;5.30;;;27.40;25.00;;;;;;10421907;28;20229;-70
2023/05/20 14:41:17;;;;;;;5.40;5.00;;;27.50;24.10;;;;;;10450040;28;20213;-70
2023/05/20 14:46:21;;;;;;;5.60;5.20;;;27.40;24.60;;;;;;10454226;28;20323;-71
2023/05/20 14:51:26;;;;;;;5.47;4.97;;;27.30;24.50;;;;;;10440815;28;20239;-70
2023/05/20 14:56:30;;;;;;;5.77;5.37;;;27.20;24.40;;;;;;10440351;28;20725;-70
2023/05/20 15:01:34;;;;;;;5.27;4.77;;;27.20;24.30;;;;;;10424147;28;20618;-70
2023/05/20 15:06:39;;;;;;;6.17;5.60;;;27.20;24.50;;;;;;10416255;28;20229;-71
2023/05/20 15:11:42;;;;;;;5.80;5.40;;;27.10;23.80;;;;;;10438501;28;20232;-70
2023/05/20 15:16:45;;;;;;;6.47;5.93;;;27.00;24.10;;;;;;10437991;28;20739;-70
2023/05/20 15:21:51;;;;;;;6.00;5.50;;;27.00;24.20;;;;;;10439805;28;20220;-70
2023/05/20 15:26:54;;;;;;;5.93;5.33;;;27.00;23.70;;;;;;10439873;28;20228;-70
2023/05/20 15:31:58;;;;;;;5.73;5.23;;;26.90;24.10;;;;;;10441673;28;20229;-71
2023/05/20 15:37:03;;;;;;;6.30;5.70;;;26.90;23.80;;;;;;10443931;28;20755;-71
2023/05/20 15:42:06;;;;;;;6.67;6.07;;;26.90;23.80;;;;;;10451043;28;20224;-71
2023/05/20 15:47:10;;;;;;;6.77;6.23;;;26.80;23.90;;;;;;10446206;28;20259;-70
2023/05/20 15:52:14;;;;;;;6.23;5.63;;;26.80;24.00;;;;;;10450378;28;20236;-70
2023/05/20 15:57:18;;;;;;;6.53;5.67;;;26.80;23.90;;;;;;10450900;28;20957;-72
2023/05/20 16:02:21;;;;;;;8.27;6.07;;;26.80;24.30;;;;;;10447915;28;21155;-73
2023/05/20 16:07:26;;;;;;;6.13;5.60;;;26.80;23.90;;;;;;10453644;28;20228;-72
2023/05/20 16:12:30;;;;;;;6.77;6.17;;;26.80;23.80;;;;;;10470843;28;20242;-72
2023/05/20 16:17:33;;;;;;;6.47;5.97;;;26.70;23.90;;;;;;10446456;28;20366;-71
2023/05/20 16:22:37;;;;;;;6.00;5.50;;;26.70;24.00;;;;;;10452648;28;20228;-72
2023/05/20 16:27:41;;;;;;;6.43;5.90;;;26.70;24.30;;;;;;10453089;28;20260;-72
2023/05/20 16:32:44;;;;;;;6.53;5.93;;;26.60;23.90;;;;;;10448682;28;20233;-72
2023/05/20 16:37:49;;;;;;;6.70;6.03;;;26.70;23.90;;;;;;10443849;28;20225;-72
2023/05/20 16:42:53;;;;;;;5.77;5.30;;;26.70;23.70;;;;;;10439619;28;20304;-73
2023/05/20 16:47:56;;;;;;;6.40;5.90;;;26.60;23.90;;;;;;10445290;28;20274;-72
2023/05/20 16:53:00;;;;;;;6.23;5.73;;;26.60;23.90;;;;;;10450588;28;20221;-72
2023/05/20 16:58:04;;;;;;;6.13;5.63;;;26.60;23.70;;;;;;10461148;28;20230;-71
2023/05/20 17:03:07;;;;;;;5.90;5.40;;;26.50;23.60;;;;;;10450044;28;20228;-72
2023/05/20 17:08:11;;;;;;;5.83;5.40;;;26.40;23.80;;;;;;10453322;28;20310;-72
2023/05/20 17:13:15;;;;;;;5.93;5.53;;;26.30;23.80;;;;;;10444765;28;20781;-72
2023/05/20 17:18:18;;;;;;;6.40;5.83;;;26.30;24.00;;;;;;10449316;28;20247;-72
2023/05/20 17:23:22;;;;;;;6.17;5.67;;;26.20;24.10;;;;;;10443841;28;20881;-72
2023/05/20 17:28:26;;;;;;;6.47;5.87;;;26.20;23.90;;;;;;10441393;28;20248;-72
2023/05/20 17:33:29;;;;;;;6.13;5.63;;;26.20;24.20;;;;;;10446112;28;20814;-72
2023/05/20 17:38:33;;;;;;;6.03;5.63;;;26.10;24.20;;;;;;10442080;28;20261;-72
2023/05/20 17:43:37;;;;;;;6.87;6.37;;;26.10;24.10;;;;;;10456274;28;20229;-72
2023/05/20 17:48:40;;;;;;;6.57;5.97;;;26.10;24.30;;;;;;10444797;28;20267;-72
2023/05/20 17:53:45;;;;;;;6.43;5.83;;;26.00;24.20;;;;;;10446207;28;20232;-72
2023/05/20 17:58:48;;;;;;;6.73;6.13;;;25.90;24.10;;;;;;10449725;28;20237;-72
2023/05/20 18:03:51;;;;;;;6.70;6.20;;;25.80;24.40;;;;;;10447145;28;20311;-72
2023/05/20 18:08:58;;;;;;;7.30;6.70;;;25.70;24.50;;;;;;10449346;28;20225;-72
2023/05/20 18:14:02;;;;;;;6.80;6.20;;;25.60;24.60;;;;;;10438985;28;20233;-71
2023/05/20 18:19:05;;;;;;;7.10;6.47;;;25.50;24.80;;;;;;10450810;28;20316;-71
2023/05/20 18:24:10;;;;;;;6.80;6.20;;;25.40;24.80;;;;;;10441370;28;20276;-71
2023/05/20 18:29:13;;;;;;;6.83;6.33;;;25.30;25.00;;;;;;10445690;28;20229;-71
2023/05/20 18:34:17;;;;;;;6.83;6.30;;;25.30;25.10;;;;;;10438892;28;20228;-70
2023/05/20 18:39:21;;;;;;;7.20;6.60;;;25.20;25.30;;;;;;10441830;28;20225;-70
2023/05/20 18:44:25;;;;;;;7.50;6.90;;;25.20;25.50;;;;;;10431159;28;20225;-70
2023/05/20 18:49:28;;;;;;;8.77;7.17;;;25.10;25.50;;;;;;10431121;28;20250;-73
2023/05/20 18:54:33;;;;;;;7.23;6.73;;;25.00;25.50;;;;;;10432529;28;20732;-70
2023/05/20 18:59:36;;;;;;;6.40;5.90;;;24.90;25.80;;;;;;10429564;28;20287;-71
2023/05/20 19:04:40;;;;;;;7.27;6.57;;;24.90;25.90;;;;;;10425678;28;20762;-73
2023/05/20 19:09:44;;;;;;;7.33;6.73;;;24.80;26.00;;;;;;10449643;28;20266;-73
2023/05/20 19:14:48;;;;;;;9.57;6.77;;;24.70;26.20;;;;;;10451520;28;20223;-73
2023/05/20 19:19:51;;;;;;;8.00;7.30;;;24.60;26.10;;;;;;10440014;28;20220;-73
2023/05/20 19:24:56;;;;;;;7.40;6.80;;;24.60;26.30;;;;;;10441799;28;20458;-72
2023/05/20 19:29:59;;;;;;;7.77;7.07;;;24.50;26.60;;;;;;10450955;28;20320;-72
2023/05/20 19:35:04;;;;;;;8.97;7.00;;;24.40;26.60;;;;;;10451031;28;20328;-73
2023/05/20 19:40:10;;;;;;;7.13;6.57;;;24.30;26.70;;;;;;10454957;28;20237;-72
2023/05/20 19:45:14;;;;;;;7.80;7.10;;;24.20;27.10;;;;;;10454565;28;20229;-72
2023/05/20 19:50:17;;;;;;;6.97;6.37;;;24.10;26.90;;;;;;10453458;28;20748;-73
2023/05/20 19:55:21;;;;;;;7.30;6.70;;;24.00;27.00;;;;;;10453834;28;20229;-72
2023/05/20 20:00:25;;;;;;;7.40;6.80;;;23.90;27.30;;;;;;10453025;28;20249;-72
2023/05/20 20:05:29;;;;;;;7.53;6.73;;;23.80;27.20;;;;;;10453884;28;20259;-72
2023/05/20 20:10:36;;;;;;;7.80;7.03;;;23.70;27.60;;;;;;10454301;28;20229;-72
2023/05/20 20:15:39;;;;;;;7.20;6.60;;;23.60;27.80;;;;;;10452817;28;20824;-73
2023/05/20 20:20:43;;;;;;;8.27;7.57;;;23.50;27.70;;;;;;10452306;28;20233;-73
2023/05/20 20:25:49;;;;;;;7.13;6.43;;;23.50;27.70;;;;;;10452916;28;20595;-72
2023/05/20 20:30:52;;;;;;;7.80;7.20;;;23.40;27.60;;;;;;10451113;28;20706;-72
2023/05/20 20:35:56;;;;;;;7.60;7.00;;;23.40;27.60;;;;;;10452841;28;20233;-72
2023/05/20 20:41:02;;;;;;;7.03;6.43;;;23.30;27.50;;;;;;10448405;28;20252;-72
2023/05/20 20:46:06;;;;;;;8.07;7.47;;;23.20;27.90;;;;;;10449846;28;20228;-72
2023/05/20 20:51:09;;;;;;;7.73;7.10;;;23.20;28.00;;;;;;10440515;28;20256;-72
2023/05/20 20:56:14;;;;;;;7.77;7.17;;;23.20;28.10;;;;;;10447004;28;20840;-72
2023/05/20 21:01:17;;;;;;;7.70;7.10;;;23.10;28.40;;;;;;10451823;28;20223;-72
2023/05/20 21:06:20;;;;;;;8.50;7.37;;;23.00;28.20;;;;;;10447992;28;20685;-72
2023/05/20 21:11:26;;;;;;;8.03;7.33;;;23.00;28.30;;;;;;10447707;28;20707;-73
2023/05/20 21:16:29;;;;;;;7.80;7.20;;;22.90;28.50;;;;;;10450432;28;20687;-72
2023/05/20 21:21:33;;;;;;;7.07;6.50;;;22.90;28.40;;;;;;10448550;28;20237;-72
2023/05/20 21:26:37;;;;;;;7.27;6.70;;;22.90;28.50;;;;;;10452671;28;20233;-72
2023/05/20 21:31:40;;;;;;;8.00;7.37;;;22.90;28.80;;;;;;10448246;28;20867;-72
2023/05/20 21:36:43;;;;;;;6.90;6.30;;;22.80;28.60;;;;;;10444370;28;20233;-72
2023/05/20 21:41:48;;;;;;;7.70;6.60;;;22.80;28.60;;;;;;10449345;28;20217;-72
2023/05/20 21:46:51;;;;;;;7.47;6.87;;;22.80;28.80;;;;;;10453526;28;20235;-72
2023/05/20 21:51:55;;;;;;;7.43;6.83;;;22.70;28.70;;;;;;10448116;28;20220;-72
2023/05/20 21:57:01;;;;;;;7.97;7.17;;;22.70;28.80;;;;;;10459732;28;20315;-72
2023/05/20 22:02:04;;;;;;;7.27;6.67;;;22.60;29.00;;;;;;10441255;28;20478;-72
2023/05/20 22:07:08;;;;;;;7.20;6.60;;;22.60;28.90;;;;;;10453495;28;20648;-72
2023/05/20 22:12:14;;;;;;;7.17;6.57;;;22.50;28.90;;;;;;10444193;28;20259;-72
2023/05/20 22:17:17;;;;;;;7.07;6.53;;;22.50;29.30;;;;;;10452180;28;20232;-72
2023/05/20 22:22:20;;;;;;;7.33;6.63;;;22.40;29.10;;;;;;10448630;28;20308;-72
2023/05/20 22:27:25;;;;;;;6.80;6.20;;;22.40;29.80;;;;;;10443720;28;20238;-72
2023/05/20 22:32:28;;;;;;;7.50;6.90;;;22.40;29.30;;;;;;10447322;28;20252;-72
2023/05/20 22:37:32;;;;;;;6.63;6.13;;;22.30;29.30;;;;;;10450557;28;20233;-72
2023/05/20 22:42:36;;;;;;;7.20;6.60;;;22.20;29.20;;;;;;10447333;28;20236;-72
2023/05/20 22:47:40;;;;;;;7.33;6.70;;;22.20;29.50;;;;;;10445589;28;20236;-72
2023/05/20 22:52:43;;;;;;;7.00;6.50;;;22.20;29.40;;;;;;10443440;28;20224;-72
2023/05/20 22:57:48;;;;;;;6.70;6.20;;;22.20;29.40;;;;;;10452576;28;20228;-72
2023/05/20 23:02:51;;;;;;;6.57;6.07;;;22.10;29.60;;;;;;10450191;28;20229;-72
2023/05/20 23:07:54;;;;;;;7.20;6.50;;;22.20;29.50;;;;;;10447803;28;20228;-72
2023/05/20 23:12:59;;;;;;;7.13;6.43;;;22.10;29.40;;;;;;10448392;28;20308;-72
2023/05/20 23:18:02;;;;;;;7.17;6.57;;;22.10;29.60;;;;;;10445557;28;20224;-72
2023/05/20 23:23:05;;;;;;;6.53;5.93;;;22.00;29.50;;;;;;10450175;28;20221;-72
2023/05/20 23:28:15;;;;;;;6.53;5.93;;;21.90;29.50;;;;;;10446577;28;20220;-73
2023/05/20 23:33:18;;;;;;;6.80;6.20;;;21.90;29.70;;;;;;10443130;28;20815;-72
2023/05/20 23:38:26;;;;;;;7.17;6.47;;;21.80;29.60;;;;;;10451525;28;20247;-72
2023/05/20 23:43:31;;;;;;;6.67;6.00;;;21.80;29.60;;;;;;10445328;28;20235;-72
2023/05/20 23:48:34;;;;;;;7.07;6.47;;;21.70;29.70;;;;;;10441979;28;20241;-72
2023/05/20 23:53:37;;;;;;;6.87;6.37;;;21.70;29.60;;;;;;10446095;28;20245;-72
2023/05/20 23:58:42;;;;;;;6.80;6.20;;;21.70;29.60;;;;;;10456674;28;20239;-72
